sensor_id;sensor_type;location;lat;lon;timestamp;temperature;humidity
14908;DHT22;7545;52.092;7.006;2023-03-31T00:00:54;12.10;99.90
14908;DHT22;7545;52.092;7.006;2023-03-31T00:03:22;12.10;99.90
14908;DHT22;7545;52.092;7.006;2023-03-31T00:05:54;12.10;99.90
14908;DHT22;7545;52.092;7.006;2023-03-31T00:08:20;12.10;99.90
14908;DHT22;7545;52.092;7.006;2023-03-31T00:10:46;12.10;99.90
14908;DHT22;7545;52.092;7.006;2023-03-31T00:13:12;12.00;99.90
14908;DHT22;7545;52.092;7.006;2023-03-31T00:15:38;12.00;99.90
14908;DHT22;7545;52.092;7.006;2023-03-31T00:18:03;12.00;99.90
14908;DHT22;7545;52.092;7.006;2023-03-31T00:20:29;12.00;99.90
14908;DHT22;7545;52.092;7.006;2023-03-31T00:22:58;12.00;99.90
14908;DHT22;7545;52.092;7.006;2023-03-31T00:25:26;12.00;99.90
14908;DHT22;7545;52.092;7.006;2023-03-31T00:27:52;12.00;99.90
14908;DHT22;7545;52.092;7.006;2023-03-31T00:30:23;11.90;99.90
14908;DHT22;7545;52.092;7.006;2023-03-31T00:32:49;11.90;99.90
14908;DHT22;7545;52.092;7.006;2023-03-31T00:35:14;11.90;99.90
14908;DHT22;7545;52.092;7.006;2023-03-31T00:37:40;11.90;99.90
14908;DHT22;7545;52.092;7.006;2023-03-31T00:40:07;11.90;99.90
14908;DHT22;7545;52.092;7.006;2023-03-31T00:42:39;11.90;99.90
14908;DHT22;7545;52.092;7.006;2023-03-31T00:47:49;11.90;99.90
14908;DHT22;7545;52.092;7.006;2023-03-31T00:50:23;11.90;99.90
14908;DHT22;7545;52.092;7.006;2023-03-31T00:52:56;11.90;99.90
14908;DHT22;7545;52.092;7.006;2023-03-31T00:55:29;11.80;99.90
14908;DHT22;7545;52.092;7.006;2023-03-31T00:57:57;11.80;99.90
14908;DHT22;7545;52.092;7.006;2023-03-31T01:00:23;11.80;99.90
14908;DHT22;7545;52.092;7.006;2023-03-31T01:02:53;11.80;99.90
14908;DHT22;7545;52.092;7.006;2023-03-31T01:05:26;11.80;99.90
14908;DHT22;7545;52.092;7.006;2023-03-31T01:07:53;11.90;99.90
14908;DHT22;7545;52.092;7.006;2023-03-31T01:10:20;11.80;99.90
14908;DHT22;7545;52.092;7.006;2023-03-31T01:12:49;11.90;99.90
14908;DHT22;7545;52.092;7.006;2023-03-31T01:15:15;11.80;99.90
14908;DHT22;7545;52.092;7.006;2023-03-31T01:17:42;11.90;99.90
14908;DHT22;7545;52.092;7.006;2023-03-31T01:20:38;11.80;99.90
14908;DHT22;7545;52.092;7.006;2023-03-31T01:23:26;11.90;99.90
14908;DHT22;7545;52.092;7.006;2023-03-31T01:43:14;11.90;99.90
14908;DHT22;7545;52.092;7.006;2023-03-31T01:51:17;11.90;99.90
14908;DHT22;7545;52.092;7.006;2023-03-31T01:56:48;11.90;99.90
14908;DHT22;7545;52.092;7.006;2023-03-31T01:59:16;11.90;99.90
14908;DHT22;7545;52.092;7.006;2023-03-31T02:02:07;11.90;99.90
14908;DHT22;7545;52.092;7.006;2023-03-31T02:04:39;11.90;99.90
14908;DHT22;7545;52.092;7.006;2023-03-31T02:07:20;11.90;99.90
14908;DHT22;7545;52.092;7.006;2023-03-31T02:09:54;11.80;99.90
14908;DHT22;7545;52.092;7.006;2023-03-31T02:12:21;11.80;99.90
14908;DHT22;7545;52.092;7.006;2023-03-31T02:14:51;11.80;99.90
14908;DHT22;7545;52.092;7.006;2023-03-31T02:17:22;11.80;99.90
14908;DHT22;7545;52.092;7.006;2023-03-31T02:19:56;11.80;99.90
14908;DHT22;7545;52.092;7.006;2023-03-31T02:22:24;11.80;99.90
14908;DHT22;7545;52.092;7.006;2023-03-31T02:24:52;11.80;99.90
14908;DHT22;7545;52.092;7.006;2023-03-31T02:27:24;11.80;99.90
14908;DHT22;7545;52.092;7.006;2023-03-31T02:29:51;11.80;99.90
14908;DHT22;7545;52.092;7.006;2023-03-31T02:34:47;11.70;99.90
14908;DHT22;7545;52.092;7.006;2023-03-31T02:37:14;11.70;99.90
14908;DHT22;7545;52.092;7.006;2023-03-31T02:39:41;11.70;99.90
14908;DHT22;7545;52.092;7.006;2023-03-31T02:42:08;11.70;99.90
14908;DHT22;7545;52.092;7.006;2023-03-31T02:44:35;11.70;99.90
14908;DHT22;7545;52.092;7.006;2023-03-31T02:47:04;11.70;99.90
14908;DHT22;7545;52.092;7.006;2023-03-31T02:49:31;11.70;99.90
14908;DHT22;7545;52.092;7.006;2023-03-31T03:00:33;11.70;99.90
14908;DHT22;7545;52.092;7.006;2023-03-31T03:03:26;11.60;99.90
14908;DHT22;7545;52.092;7.006;2023-03-31T03:14:49;11.60;99.90
14908;DHT22;7545;52.092;7.006;2023-03-31T03:17:29;11.60;99.90
14908;DHT22;7545;52.092;7.006;2023-03-31T03:19:59;11.60;99.90
14908;DHT22;7545;52.092;7.006;2023-03-31T03:22:25;11.60;99.90
14908;DHT22;7545;52.092;7.006;2023-03-31T03:24:51;11.60;99.90
14908;DHT22;7545;52.092;7.006;2023-03-31T03:27:18;11.60;99.90
14908;DHT22;7545;52.092;7.006;2023-03-31T03:29:44;11.60;99.90
14908;DHT22;7545;52.092;7.006;2023-03-31T03:32:10;11.60;99.90
14908;DHT22;7545;52.092;7.006;2023-03-31T03:34:36;11.60;99.90
14908;DHT22;7545;52.092;7.006;2023-03-31T03:37:02;11.60;99.90
14908;DHT22;7545;52.092;7.006;2023-03-31T03:39:27;11.60;99.90
14908;DHT22;7545;52.092;7.006;2023-03-31T03:41:53;11.60;99.90
14908;DHT22;7545;52.092;7.006;2023-03-31T03:44:18;11.60;99.90
14908;DHT22;7545;52.092;7.006;2023-03-31T03:46:44;11.60;99.90
14908;DHT22;7545;52.092;7.006;2023-03-31T03:49:10;11.60;99.90
14908;DHT22;7545;52.092;7.006;2023-03-31T03:51:35;11.60;99.90
14908;DHT22;7545;52.092;7.006;2023-03-31T03:54:01;11.60;99.90
14908;DHT22;7545;52.092;7.006;2023-03-31T03:56:26;11.60;99.90
14908;DHT22;7545;52.092;7.006;2023-03-31T03:58:55;11.60;99.90
14908;DHT22;7545;52.092;7.006;2023-03-31T04:01:22;11.60;99.90
14908;DHT22;7545;52.092;7.006;2023-03-31T04:03:48;11.60;99.90
14908;DHT22;7545;52.092;7.006;2023-03-31T04:06:13;11.60;99.90
14908;DHT22;7545;52.092;7.006;2023-03-31T04:08:39;11.60;99.90
14908;DHT22;7545;52.092;7.006;2023-03-31T04:11:12;11.60;99.90
14908;DHT22;7545;52.092;7.006;2023-03-31T04:13:38;11.60;99.90
14908;DHT22;7545;52.092;7.006;2023-03-31T04:16:04;11.60;99.90
14908;DHT22;7545;52.092;7.006;2023-03-31T04:18:30;11.60;99.90
14908;DHT22;7545;52.092;7.006;2023-03-31T04:20:55;11.60;99.90
14908;DHT22;7545;52.092;7.006;2023-03-31T04:23:31;11.60;99.90
14908;DHT22;7545;52.092;7.006;2023-03-31T04:25:57;11.60;99.90
14908;DHT22;7545;52.092;7.006;2023-03-31T04:28:23;11.60;99.90
14908;DHT22;7545;52.092;7.006;2023-03-31T04:30:54;11.60;99.90
14908;DHT22;7545;52.092;7.006;2023-03-31T04:33:23;11.60;99.90
14908;DHT22;7545;52.092;7.006;2023-03-31T04:35:48;11.60;99.90
14908;DHT22;7545;52.092;7.006;2023-03-31T04:38:19;11.60;99.90
14908;DHT22;7545;52.092;7.006;2023-03-31T04:40:46;11.60;99.90
14908;DHT22;7545;52.092;7.006;2023-03-31T04:43:12;11.60;99.90
14908;DHT22;7545;52.092;7.006;2023-03-31T04:45:38;11.50;99.90
14908;DHT22;7545;52.092;7.006;2023-03-31T04:48:04;11.50;99.90
14908;DHT22;7545;52.092;7.006;2023-03-31T04:50:30;11.50;99.90
14908;DHT22;7545;52.092;7.006;2023-03-31T04:52:57;11.50;99.90
14908;DHT22;7545;52.092;7.006;2023-03-31T04:55:22;11.50;99.90
14908;DHT22;7545;52.092;7.006;2023-03-31T04:57:48;11.50;99.90
14908;DHT22;7545;52.092;7.006;2023-03-31T05:00:14;11.50;99.90
14908;DHT22;7545;52.092;7.006;2023-03-31T05:02:40;11.60;99.90
14908;DHT22;7545;52.092;7.006;2023-03-31T05:05:05;11.60;99.90
14908;DHT22;7545;52.092;7.006;2023-03-31T05:07:31;11.50;99.90
14908;DHT22;7545;52.092;7.006;2023-03-31T05:09:57;11.50;99.90
14908;DHT22;7545;52.092;7.006;2023-03-31T05:12:22;11.50;99.90
14908;DHT22;7545;52.092;7.006;2023-03-31T05:14:48;11.50;99.90
14908;DHT22;7545;52.092;7.006;2023-03-31T05:17:14;11.50;99.90
14908;DHT22;7545;52.092;7.006;2023-03-31T05:19:42;11.50;99.90
14908;DHT22;7545;52.092;7.006;2023-03-31T05:22:08;11.50;99.90
14908;DHT22;7545;52.092;7.006;2023-03-31T05:24:33;11.50;99.90
14908;DHT22;7545;52.092;7.006;2023-03-31T05:26:59;11.50;99.90
14908;DHT22;7545;52.092;7.006;2023-03-31T05:29:25;11.50;99.90
14908;DHT22;7545;52.092;7.006;2023-03-31T05:31:51;11.50;99.90
14908;DHT22;7545;52.092;7.006;2023-03-31T05:34:18;11.50;99.90
14908;DHT22;7545;52.092;7.006;2023-03-31T05:36:44;11.50;99.90
14908;DHT22;7545;52.092;7.006;2023-03-31T05:39:10;11.50;99.90
14908;DHT22;7545;52.092;7.006;2023-03-31T05:41:35;11.50;99.90
14908;DHT22;7545;52.092;7.006;2023-03-31T05:44:01;11.50;99.90
14908;DHT22;7545;52.092;7.006;2023-03-31T05:46:27;11.50;99.90
14908;DHT22;7545;52.092;7.006;2023-03-31T05:48:53;11.50;99.90
14908;DHT22;7545;52.092;7.006;2023-03-31T05:51:18;11.40;99.90
14908;DHT22;7545;52.092;7.006;2023-03-31T05:53:44;11.40;99.90
14908;DHT22;7545;52.092;7.006;2023-03-31T05:56:10;11.40;99.90
14908;DHT22;7545;52.092;7.006;2023-03-31T05:58:36;11.50;99.90
14908;DHT22;7545;52.092;7.006;2023-03-31T06:01:11;11.40;99.90
14908;DHT22;7545;52.092;7.006;2023-03-31T06:03:39;11.40;99.90
14908;DHT22;7545;52.092;7.006;2023-03-31T06:06:08;11.40;99.90
14908;DHT22;7545;52.092;7.006;2023-03-31T06:08:35;11.40;99.90
14908;DHT22;7545;52.092;7.006;2023-03-31T06:11:10;11.40;99.90
14908;DHT22;7545;52.092;7.006;2023-03-31T06:13:36;11.50;99.90
14908;DHT22;7545;52.092;7.006;2023-03-31T06:16:02;11.50;99.90
14908;DHT22;7545;52.092;7.006;2023-03-31T06:18:30;11.50;99.90
14908;DHT22;7545;52.092;7.006;2023-03-31T06:20:56;11.50;99.90
14908;DHT22;7545;52.092;7.006;2023-03-31T06:23:22;11.50;99.90
14908;DHT22;7545;52.092;7.006;2023-03-31T06:25:48;11.50;99.90
14908;DHT22;7545;52.092;7.006;2023-03-31T06:28:14;11.50;99.90
14908;DHT22;7545;52.092;7.006;2023-03-31T06:30:39;11.50;99.90
14908;DHT22;7545;52.092;7.006;2023-03-31T06:33:05;11.50;99.90
14908;DHT22;7545;52.092;7.006;2023-03-31T06:35:31;11.50;99.90
14908;DHT22;7545;52.092;7.006;2023-03-31T06:37:56;11.50;99.90
14908;DHT22;7545;52.092;7.006;2023-03-31T06:40:22;11.50;99.90
14908;DHT22;7545;52.092;7.006;2023-03-31T06:42:48;11.50;99.90
14908;DHT22;7545;52.092;7.006;2023-03-31T06:45:14;11.60;99.90
14908;DHT22;7545;52.092;7.006;2023-03-31T06:47:39;11.60;99.90
14908;DHT22;7545;52.092;7.006;2023-03-31T06:50:08;11.60;99.90
14908;DHT22;7545;52.092;7.006;2023-03-31T06:52:35;11.50;99.90
14908;DHT22;7545;52.092;7.006;2023-03-31T06:55:02;11.60;99.90
14908;DHT22;7545;52.092;7.006;2023-03-31T06:57:28;11.50;99.90
14908;DHT22;7545;52.092;7.006;2023-03-31T06:59:54;11.60;99.90
14908;DHT22;7545;52.092;7.006;2023-03-31T07:02:20;11.60;99.90
14908;DHT22;7545;52.092;7.006;2023-03-31T07:04:45;11.60;99.90
14908;DHT22;7545;52.092;7.006;2023-03-31T07:07:11;11.60;99.90
14908;DHT22;7545;52.092;7.006;2023-03-31T07:09:37;11.60;99.90
14908;DHT22;7545;52.092;7.006;2023-03-31T07:12:03;11.60;99.90
14908;DHT22;7545;52.092;7.006;2023-03-31T07:14:31;11.60;99.90
14908;DHT22;7545;52.092;7.006;2023-03-31T07:16:58;11.60;99.90
14908;DHT22;7545;52.092;7.006;2023-03-31T07:19:23;11.60;99.90
14908;DHT22;7545;52.092;7.006;2023-03-31T07:21:49;11.70;99.90
14908;DHT22;7545;52.092;7.006;2023-03-31T07:24:16;11.70;99.90
14908;DHT22;7545;52.092;7.006;2023-03-31T07:26:54;11.70;99.90
14908;DHT22;7545;52.092;7.006;2023-03-31T07:29:19;11.70;99.90
14908;DHT22;7545;52.092;7.006;2023-03-31T07:31:46;11.80;99.90
14908;DHT22;7545;52.092;7.006;2023-03-31T07:34:12;11.80;99.90
14908;DHT22;7545;52.092;7.006;2023-03-31T07:36:38;11.80;99.90
14908;DHT22;7545;52.092;7.006;2023-03-31T07:39:05;11.80;99.90
14908;DHT22;7545;52.092;7.006;2023-03-31T07:41:31;11.80;99.90
14908;DHT22;7545;52.092;7.006;2023-03-31T07:43:56;11.80;99.90
14908;DHT22;7545;52.092;7.006;2023-03-31T07:46:24;11.80;99.90
14908;DHT22;7545;52.092;7.006;2023-03-31T07:48:51;11.90;99.90
14908;DHT22;7545;52.092;7.006;2023-03-31T07:51:20;11.90;99.90
14908;DHT22;7545;52.092;7.006;2023-03-31T07:53:46;11.90;99.90
14908;DHT22;7545;52.092;7.006;2023-03-31T07:56:13;11.90;99.90
14908;DHT22;7545;52.092;7.006;2023-03-31T07:58:42;11.90;99.90
14908;DHT22;7545;52.092;7.006;2023-03-31T08:01:08;11.90;99.90
14908;DHT22;7545;52.092;7.006;2023-03-31T08:03:33;11.90;99.90
14908;DHT22;7545;52.092;7.006;2023-03-31T08:05:59;11.90;99.90
14908;DHT22;7545;52.092;7.006;2023-03-31T08:08:25;11.90;99.90
14908;DHT22;7545;52.092;7.006;2023-03-31T08:10:51;11.90;99.90
14908;DHT22;7545;52.092;7.006;2023-03-31T08:13:17;11.90;99.90
14908;DHT22;7545;52.092;7.006;2023-03-31T08:15:43;11.80;99.90
14908;DHT22;7545;52.092;7.006;2023-03-31T08:18:08;11.90;99.90
14908;DHT22;7545;52.092;7.006;2023-03-31T08:20:34;11.90;99.90
14908;DHT22;7545;52.092;7.006;2023-03-31T08:23:01;11.80;99.90
14908;DHT22;7545;52.092;7.006;2023-03-31T08:25:26;11.80;99.90
14908;DHT22;7545;52.092;7.006;2023-03-31T08:27:52;11.80;99.90
14908;DHT22;7545;52.092;7.006;2023-03-31T08:30:18;11.80;99.90
14908;DHT22;7545;52.092;7.006;2023-03-31T08:32:44;11.80;99.90
14908;DHT22;7545;52.092;7.006;2023-03-31T08:35:11;11.80;99.90
14908;DHT22;7545;52.092;7.006;2023-03-31T08:37:37;11.80;99.90
14908;DHT22;7545;52.092;7.006;2023-03-31T08:40:04;11.80;99.90
14908;DHT22;7545;52.092;7.006;2023-03-31T08:42:44;11.90;99.90
14908;DHT22;7545;52.092;7.006;2023-03-31T08:45:48;11.90;99.90
14908;DHT22;7545;52.092;7.006;2023-03-31T08:48:28;11.90;99.90
14908;DHT22;7545;52.092;7.006;2023-03-31T08:51:02;11.90;99.90
14908;DHT22;7545;52.092;7.006;2023-03-31T08:53:40;11.90;99.90
14908;DHT22;7545;52.092;7.006;2023-03-31T08:56:12;11.90;99.90
14908;DHT22;7545;52.092;7.006;2023-03-31T08:58:41;11.90;99.90
14908;DHT22;7545;52.092;7.006;2023-03-31T09:01:21;11.80;99.90
14908;DHT22;7545;52.092;7.006;2023-03-31T09:04:17;11.80;99.90
14908;DHT22;7545;52.092;7.006;2023-03-31T09:15:29;11.60;99.90
14908;DHT22;7545;52.092;7.006;2023-03-31T09:18:02;11.60;99.90
14908;DHT22;7545;52.092;7.006;2023-03-31T09:20:36;11.60;99.90
14908;DHT22;7545;52.092;7.006;2023-03-31T09:23:22;11.60;99.90
14908;DHT22;7545;52.092;7.006;2023-03-31T09:25:49;11.60;99.90
14908;DHT22;7545;52.092;7.006;2023-03-31T09:28:20;11.60;99.90
14908;DHT22;7545;52.092;7.006;2023-03-31T09:30:47;11.60;99.90
14908;DHT22;7545;52.092;7.006;2023-03-31T09:33:28;11.70;99.90
14908;DHT22;7545;52.092;7.006;2023-03-31T09:36:01;11.70;99.90
14908;DHT22;7545;52.092;7.006;2023-03-31T09:38:27;11.70;99.90
14908;DHT22;7545;52.092;7.006;2023-03-31T09:40:58;11.70;99.90
14908;DHT22;7545;52.092;7.006;2023-03-31T09:43:28;11.80;99.90
14908;DHT22;7545;52.092;7.006;2023-03-31T09:45:54;11.80;99.90
14908;DHT22;7545;52.092;7.006;2023-03-31T09:48:26;11.80;99.90
14908;DHT22;7545;52.092;7.006;2023-03-31T09:51:05;11.80;99.90
14908;DHT22;7545;52.092;7.006;2023-03-31T09:53:48;11.90;99.90
14908;DHT22;7545;52.092;7.006;2023-03-31T09:56:43;11.90;99.90
14908;DHT22;7545;52.092;7.006;2023-03-31T09:59:19;11.90;99.90
14908;DHT22;7545;52.092;7.006;2023-03-31T10:01:46;12.00;99.90
14908;DHT22;7545;52.092;7.006;2023-03-31T10:04:27;12.00;99.90
14908;DHT22;7545;52.092;7.006;2023-03-31T10:06:55;12.10;99.90
14908;DHT22;7545;52.092;7.006;2023-03-31T10:09:25;12.20;99.90
14908;DHT22;7545;52.092;7.006;2023-03-31T10:15:02;12.30;99.90
14908;DHT22;7545;52.092;7.006;2023-03-31T10:17:21;12.50;99.90
14908;DHT22;7545;52.092;7.006;2023-03-31T10:19:57;12.50;99.90
14908;DHT22;7545;52.092;7.006;2023-03-31T10:22:27;12.60;99.90
14908;DHT22;7545;52.092;7.006;2023-03-31T10:24:53;12.70;99.90
14908;DHT22;7545;52.092;7.006;2023-03-31T10:27:26;12.70;99.90
14908;DHT22;7545;52.092;7.006;2023-03-31T10:29:54;12.80;99.90
14908;DHT22;7545;52.092;7.006;2023-03-31T10:32:28;12.90;99.90
14908;DHT22;7545;52.092;7.006;2023-03-31T10:34:56;13.00;99.90
14908;DHT22;7545;52.092;7.006;2023-03-31T10:37:24;13.00;99.90
14908;DHT22;7545;52.092;7.006;2023-03-31T10:40:20;13.00;99.90
14908;DHT22;7545;52.092;7.006;2023-03-31T10:43:01;13.10;99.90
14908;DHT22;7545;52.092;7.006;2023-03-31T10:45:30;13.20;99.90
14908;DHT22;7545;52.092;7.006;2023-03-31T10:48:00;13.20;99.90
14908;DHT22;7545;52.092;7.006;2023-03-31T10:50:31;13.20;99.90
14908;DHT22;7545;52.092;7.006;2023-03-31T10:53:10;13.30;99.90
14908;DHT22;7545;52.092;7.006;2023-03-31T10:55:45;13.30;99.90
14908;DHT22;7545;52.092;7.006;2023-03-31T11:01:35;13.50;99.90
14908;DHT22;7545;52.092;7.006;2023-03-31T11:06:55;13.60;99.90
14908;DHT22;7545;52.092;7.006;2023-03-31T11:09:40;13.70;99.90
14908;DHT22;7545;52.092;7.006;2023-03-31T11:12:33;13.80;99.90
14908;DHT22;7545;52.092;7.006;2023-03-31T11:20:49;14.00;99.90
14908;DHT22;7545;52.092;7.006;2023-03-31T11:23:28;14.00;99.90
14908;DHT22;7545;52.092;7.006;2023-03-31T11:42:15;14.40;99.90
14908;DHT22;7545;52.092;7.006;2023-03-31T11:44:59;14.40;99.90
14908;DHT22;7545;52.092;7.006;2023-03-31T11:47:33;14.50;99.90
14908;DHT22;7545;52.092;7.006;2023-03-31T11:50:10;14.60;99.90
14908;DHT22;7545;52.092;7.006;2023-03-31T11:52:40;14.70;99.90
14908;DHT22;7545;52.092;7.006;2023-03-31T12:00:22;14.90;99.90
14908;DHT22;7545;52.092;7.006;2023-03-31T12:02:53;14.90;99.90
14908;DHT22;7545;52.092;7.006;2023-03-31T12:05:24;14.90;99.90
14908;DHT22;7545;52.092;7.006;2023-03-31T12:08:22;14.90;99.90
14908;DHT22;7545;52.092;7.006;2023-03-31T12:10:53;15.00;99.90
14908;DHT22;7545;52.092;7.006;2023-03-31T12:13:39;15.00;99.90
14908;DHT22;7545;52.092;7.006;2023-03-31T12:16:26;15.00;99.90
14908;DHT22;7545;52.092;7.006;2023-03-31T12:19:12;15.00;99.90
14908;DHT22;7545;52.092;7.006;2023-03-31T12:21:43;15.10;99.90
14908;DHT22;7545;52.092;7.006;2023-03-31T12:24:11;15.10;99.90
14908;DHT22;7545;52.092;7.006;2023-03-31T12:27:35;15.10;99.90
14908;DHT22;7545;52.092;7.006;2023-03-31T12:32:48;15.00;99.90
14908;DHT22;7545;52.092;7.006;2023-03-31T12:48:26;15.10;99.90
14908;DHT22;7545;52.092;7.006;2023-03-31T12:57:02;15.00;99.90
14908;DHT22;7545;52.092;7.006;2023-03-31T12:59:39;15.00;99.90
14908;DHT22;7545;52.092;7.006;2023-03-31T13:04:35;15.00;99.90
14908;DHT22;7545;52.092;7.006;2023-03-31T13:07:02;14.90;99.90
14908;DHT22;7545;52.092;7.006;2023-03-31T13:09:45;14.90;99.90
14908;DHT22;7545;52.092;7.006;2023-03-31T13:12:19;14.90;99.90
14908;DHT22;7545;52.092;7.006;2023-03-31T13:14:48;14.90;99.90
14908;DHT22;7545;52.092;7.006;2023-03-31T13:17:33;14.90;99.90
14908;DHT22;7545;52.092;7.006;2023-03-31T13:20:34;14.90;99.90
14908;DHT22;7545;52.092;7.006;2023-03-31T13:23:16;14.90;99.90
14908;DHT22;7545;52.092;7.006;2023-03-31T13:25:51;15.00;99.90
14908;DHT22;7545;52.092;7.006;2023-03-31T13:31:12;15.20;99.90
14908;DHT22;7545;52.092;7.006;2023-03-31T13:33:56;15.20;99.90
14908;DHT22;7545;52.092;7.006;2023-03-31T13:47:34;15.40;99.90
14908;DHT22;7545;52.092;7.006;2023-03-31T14:01:27;15.50;99.90
14908;DHT22;7545;52.092;7.006;2023-03-31T14:07:30;15.40;99.90
14908;DHT22;7545;52.092;7.006;2023-03-31T14:09:57;15.30;99.90
14908;DHT22;7545;52.092;7.006;2023-03-31T14:12:35;15.30;99.90
14908;DHT22;7545;52.092;7.006;2023-03-31T14:15:01;15.20;99.90
14908;DHT22;7545;52.092;7.006;2023-03-31T14:17:30;15.30;99.90
14908;DHT22;7545;52.092;7.006;2023-03-31T14:23:33;15.40;99.90
14908;DHT22;7545;52.092;7.006;2023-03-31T14:26:26;15.40;99.90
14908;DHT22;7545;52.092;7.006;2023-03-31T14:34:23;15.40;99.90
14908;DHT22;7545;52.092;7.006;2023-03-31T14:37:02;15.40;99.90
14908;DHT22;7545;52.092;7.006;2023-03-31T14:39:32;15.40;99.90
14908;DHT22;7545;52.092;7.006;2023-03-31T14:42:16;15.30;99.90
14908;DHT22;7545;52.092;7.006;2023-03-31T14:44:43;15.20;99.90
14908;DHT22;7545;52.092;7.006;2023-03-31T14:47:24;15.20;99.90
14908;DHT22;7545;52.092;7.006;2023-03-31T14:52:38;15.10;99.90
14908;DHT22;7545;52.092;7.006;2023-03-31T14:55:04;15.00;99.90
14908;DHT22;7545;52.092;7.006;2023-03-31T14:57:40;15.00;99.90
14908;DHT22;7545;52.092;7.006;2023-03-31T15:00:10;15.00;99.90
14908;DHT22;7545;52.092;7.006;2023-03-31T15:02:42;15.00;99.90
14908;DHT22;7545;52.092;7.006;2023-03-31T15:05:30;14.90;99.90
14908;DHT22;7545;52.092;7.006;2023-03-31T15:08:05;14.80;99.90
14908;DHT22;7545;52.092;7.006;2023-03-31T15:10:39;14.80;99.90
14908;DHT22;7545;52.092;7.006;2023-03-31T15:13:09;14.70;99.90
14908;DHT22;7545;52.092;7.006;2023-03-31T15:15:35;14.60;99.90
14908;DHT22;7545;52.092;7.006;2023-03-31T15:18:01;14.50;99.90
14908;DHT22;7545;52.092;7.006;2023-03-31T15:20:35;14.40;99.90
14908;DHT22;7545;52.092;7.006;2023-03-31T15:23:04;14.30;99.90
14908;DHT22;7545;52.092;7.006;2023-03-31T15:25:41;14.30;99.90
14908;DHT22;7545;52.092;7.006;2023-03-31T15:28:11;14.20;99.90
14908;DHT22;7545;52.092;7.006;2023-03-31T15:30:37;14.10;99.90
14908;DHT22;7545;52.092;7.006;2023-03-31T15:33:06;14.10;99.90
14908;DHT22;7545;52.092;7.006;2023-03-31T15:35:34;14.00;99.90
14908;DHT22;7545;52.092;7.006;2023-03-31T15:38:02;14.00;99.90
14908;DHT22;7545;52.092;7.006;2023-03-31T15:40:34;14.00;99.90
14908;DHT22;7545;52.092;7.006;2023-03-31T15:45:36;14.00;99.90
14908;DHT22;7545;52.092;7.006;2023-03-31T15:48:03;14.00;99.90
14908;DHT22;7545;52.092;7.006;2023-03-31T15:50:31;14.00;99.90
14908;DHT22;7545;52.092;7.006;2023-03-31T15:52:57;14.00;99.90
14908;DHT22;7545;52.092;7.006;2023-03-31T15:55:27;14.10;99.90
14908;DHT22;7545;52.092;7.006;2023-03-31T15:57:56;14.10;99.90
14908;DHT22;7545;52.092;7.006;2023-03-31T16:00:51;14.10;99.90
14908;DHT22;7545;52.092;7.006;2023-03-31T16:03:32;14.10;99.90
14908;DHT22;7545;52.092;7.006;2023-03-31T16:06:16;14.20;99.90
14908;DHT22;7545;52.092;7.006;2023-03-31T16:08:47;14.10;99.90
14908;DHT22;7545;52.092;7.006;2023-03-31T16:11:19;14.10;99.90
14908;DHT22;7545;52.092;7.006;2023-03-31T16:13:52;14.00;99.90
14908;DHT22;7545;52.092;7.006;2023-03-31T16:16:21;14.00;99.90
14908;DHT22;7545;52.092;7.006;2023-03-31T16:18:50;14.00;99.90
14908;DHT22;7545;52.092;7.006;2023-03-31T16:21:24;14.00;99.90
14908;DHT22;7545;52.092;7.006;2023-03-31T16:23:56;14.00;99.90
14908;DHT22;7545;52.092;7.006;2023-03-31T16:26:23;14.00;99.90
14908;DHT22;7545;52.092;7.006;2023-03-31T16:28:51;14.00;99.90
14908;DHT22;7545;52.092;7.006;2023-03-31T16:31:38;14.00;99.90
14908;DHT22;7545;52.092;7.006;2023-03-31T16:34:09;13.80;99.90
14908;DHT22;7545;52.092;7.006;2023-03-31T16:36:36;13.90;99.90
14908;DHT22;7545;52.092;7.006;2023-03-31T16:39:02;13.80;99.90
14908;DHT22;7545;52.092;7.006;2023-03-31T16:41:30;13.80;99.90
14908;DHT22;7545;52.092;7.006;2023-03-31T16:43:56;13.70;99.90
14908;DHT22;7545;52.092;7.006;2023-03-31T16:46:23;13.70;99.90
14908;DHT22;7545;52.092;7.006;2023-03-31T16:48:49;13.70;99.90
14908;DHT22;7545;52.092;7.006;2023-03-31T16:51:15;13.70;99.90
14908;DHT22;7545;52.092;7.006;2023-03-31T16:53:41;13.60;99.90
14908;DHT22;7545;52.092;7.006;2023-03-31T16:56:08;13.60;99.90
14908;DHT22;7545;52.092;7.006;2023-03-31T16:58:35;13.50;99.90
14908;DHT22;7545;52.092;7.006;2023-03-31T17:01:02;13.50;99.90
14908;DHT22;7545;52.092;7.006;2023-03-31T17:03:28;13.50;99.90
14908;DHT22;7545;52.092;7.006;2023-03-31T17:05:56;13.40;99.90
14908;DHT22;7545;52.092;7.006;2023-03-31T17:08:24;13.40;99.90
14908;DHT22;7545;52.092;7.006;2023-03-31T17:13:19;13.40;99.90
14908;DHT22;7545;52.092;7.006;2023-03-31T17:15:45;13.40;99.90
14908;DHT22;7545;52.092;7.006;2023-03-31T17:18:11;13.40;99.90
14908;DHT22;7545;52.092;7.006;2023-03-31T17:20:36;13.40;99.90
14908;DHT22;7545;52.092;7.006;2023-03-31T17:23:02;13.40;99.90
14908;DHT22;7545;52.092;7.006;2023-03-31T17:25:28;13.30;99.90
14908;DHT22;7545;52.092;7.006;2023-03-31T17:27:54;13.30;99.90
14908;DHT22;7545;52.092;7.006;2023-03-31T17:30:20;13.30;99.90
14908;DHT22;7545;52.092;7.006;2023-03-31T17:32:46;13.30;99.90
14908;DHT22;7545;52.092;7.006;2023-03-31T17:35:13;13.30;99.90
14908;DHT22;7545;52.092;7.006;2023-03-31T17:37:45;13.20;99.90
14908;DHT22;7545;52.092;7.006;2023-03-31T17:40:11;13.30;99.90
14908;DHT22;7545;52.092;7.006;2023-03-31T17:42:36;13.20;99.90
14908;DHT22;7545;52.092;7.006;2023-03-31T17:45:02;13.20;99.90
14908;DHT22;7545;52.092;7.006;2023-03-31T17:47:29;13.20;99.90
14908;DHT22;7545;52.092;7.006;2023-03-31T17:49:56;13.20;99.90
14908;DHT22;7545;52.092;7.006;2023-03-31T17:52:22;13.10;99.90
14908;DHT22;7545;52.092;7.006;2023-03-31T17:54:47;13.10;99.90
14908;DHT22;7545;52.092;7.006;2023-03-31T17:57:13;13.00;99.90
14908;DHT22;7545;52.092;7.006;2023-03-31T17:59:39;12.90;99.90
14908;DHT22;7545;52.092;7.006;2023-03-31T18:02:04;12.90;99.90
14908;DHT22;7545;52.092;7.006;2023-03-31T18:04:30;12.90;99.90
14908;DHT22;7545;52.092;7.006;2023-03-31T18:06:55;12.80;99.90
14908;DHT22;7545;52.092;7.006;2023-03-31T18:09:21;12.80;99.90
14908;DHT22;7545;52.092;7.006;2023-03-31T18:11:49;12.80;99.90
14908;DHT22;7545;52.092;7.006;2023-03-31T18:14:15;12.80;99.90
14908;DHT22;7545;52.092;7.006;2023-03-31T18:16:41;12.70;99.90
14908;DHT22;7545;52.092;7.006;2023-03-31T18:19:07;12.70;99.90
14908;DHT22;7545;52.092;7.006;2023-03-31T18:21:33;12.70;99.90
14908;DHT22;7545;52.092;7.006;2023-03-31T18:23:59;12.70;99.90
14908;DHT22;7545;52.092;7.006;2023-03-31T18:26:25;12.70;99.90
14908;DHT22;7545;52.092;7.006;2023-03-31T18:28:52;12.60;99.90
14908;DHT22;7545;52.092;7.006;2023-03-31T18:31:18;12.60;99.90
14908;DHT22;7545;52.092;7.006;2023-03-31T18:33:45;12.60;99.90
14908;DHT22;7545;52.092;7.006;2023-03-31T18:36:21;12.60;99.90
14908;DHT22;7545;52.092;7.006;2023-03-31T18:38:47;12.60;99.90
14908;DHT22;7545;52.092;7.006;2023-03-31T18:41:13;12.60;99.90
14908;DHT22;7545;52.092;7.006;2023-03-31T18:43:39;12.50;99.90
14908;DHT22;7545;52.092;7.006;2023-03-31T18:46:05;12.50;99.90